createdAt,value
2023-03-18T00:00:10.266Z,97891.91
2023-03-18T00:05:02.140Z,97901.94
2023-03-18T00:09:53.782Z,97894.56
2023-03-18T00:14:45.377Z,97906.22
2023-03-18T00:19:37.151Z,97904.59
2023-03-18T00:24:29.180Z,97903.78
2023-03-18T00:29:20.821Z,97910.81
2023-03-18T00:34:14.870Z,97909.50
2023-03-18T00:39:07.558Z,97910.06
2023-03-18T00:43:59.696Z,97906.53
2023-03-18T00:48:54.124Z,97912.22
2023-03-18T00:53:48.848Z,97910.81
2023-03-18T00:58:41.127Z,97908.38
2023-03-18T01:03:34.071Z,97919.47
2023-03-18T01:08:27.189Z,97925.13
2023-03-18T01:13:19.318Z,97918.91
2023-03-18T01:18:11.483Z,97922.16
2023-03-18T01:23:03.175Z,97917.28
2023-03-18T01:27:57.588Z,97920.78
2023-03-18T01:32:50.421Z,97928.91
2023-03-18T01:37:43.968Z,97922.44
2023-03-18T01:42:37.856Z,97925.94
2023-03-18T01:47:29.831Z,97919.72
2023-03-18T01:52:29.019Z,97909.97
2023-03-18T01:57:22.432Z,97905.06
2023-03-18T02:02:23.243Z,97906.69
2023-03-18T02:07:29.902Z,97911.81
2023-03-18T02:12:26.995Z,97913.13
2023-03-18T02:17:24.366Z,97906.34
2023-03-18T02:22:24.297Z,97891.72
2023-03-18T02:27:35.563Z,97896.00
2023-03-18T02:32:30.583Z,97888.91
2023-03-18T02:37:22.733Z,97892.88
2023-03-18T02:42:15.625Z,97898.50
2023-03-18T02:47:12.375Z,97882.47
2023-03-18T02:52:05.636Z,97893.22
2023-03-18T02:56:59.598Z,97897.75
2023-03-18T03:01:53.241Z,97899.38
2023-03-18T03:06:45.650Z,97892.81
2023-03-18T03:11:37.788Z,97900.88
2023-03-18T03:16:29.761Z,97904.91
2023-03-18T03:21:22.431Z,97908.91
2023-03-18T03:26:16.275Z,97909.66
2023-03-18T03:31:09.125Z,97914.28
2023-03-18T03:36:00.968Z,97920.19
2023-03-18T03:40:54.014Z,97929.09
2023-03-18T03:45:46.123Z,97917.72
2023-03-18T03:50:39.870Z,97927.75
2023-03-18T03:55:32.117Z,97923.34
2023-03-18T04:00:24.272Z,97924.41
2023-03-18T04:05:20.429Z,97940.06
2023-03-18T04:10:16.654Z,97941.13
2023-03-18T04:15:11.891Z,97944.38
2023-03-18T04:20:05.497Z,97946.59
2023-03-18T04:24:59.500Z,97953.13
2023-03-18T04:29:53.521Z,97958.84
2023-03-18T04:34:45.206Z,97954.84
2023-03-18T04:39:37.021Z,97962.19
2023-03-18T04:44:30.570Z,97961.13
2023-03-18T04:49:22.238Z,97969.00
2023-03-18T04:54:13.874Z,97976.03
2023-03-18T04:59:06.259Z,97972.75
2023-03-18T05:03:58.386Z,97969.00
2023-03-18T05:08:51.349Z,97979.56
2023-03-18T05:13:43.020Z,97984.72
2023-03-18T05:18:34.956Z,97980.44
2023-03-18T05:23:26.567Z,97977.97
2023-03-18T05:28:18.395Z,97995.03
2023-03-18T05:33:10.190Z,97979.56
2023-03-18T05:38:02.034Z,97982.78
2023-03-18T05:42:56.511Z,97987.34
2023-03-18T05:47:48.290Z,97987.84
2023-03-18T05:52:40.053Z,97994.91
2023-03-18T05:57:32.767Z,97997.59
2023-03-18T06:02:27.125Z,97993.25
2023-03-18T06:07:18.734Z,98006.53
2023-03-18T06:12:10.539Z,98008.16
2023-03-18T06:17:02.297Z,98013.56
2023-03-18T06:21:54.003Z,98017.09
2023-03-18T06:26:45.757Z,98015.13
2023-03-18T06:31:37.823Z,98027.34
2023-03-18T06:36:30.841Z,98020.03
2023-03-18T06:41:22.477Z,98026.03
2023-03-18T06:46:14.885Z,98033.66
2023-03-18T06:51:07.910Z,98026.09
2023-03-18T06:56:00.421Z,98037.47
2023-03-18T07:00:53.420Z,98044.28
2023-03-18T07:05:45.492Z,98031.31
2023-03-18T07:10:37.144Z,98044.34
2023-03-18T07:15:28.877Z,98050.91
2023-03-18T07:20:22.474Z,98050.66
2023-03-18T07:25:14.704Z,98053.09
2023-03-18T07:30:09.661Z,98056.44
2023-03-18T07:35:03.037Z,98067.84
2023-03-18T07:39:54.633Z,98073.06
2023-03-18T07:44:46.314Z,98076.09
2023-03-18T07:49:37.884Z,98073.13
2023-03-18T07:54:29.503Z,98082.72
2023-03-18T07:59:21.214Z,98081.44
2023-03-18T08:04:12.913Z,98082.31
2023-03-18T08:09:05.659Z,98084.00
2023-03-18T08:13:57.238Z,98085.28
2023-03-18T08:18:48.850Z,98087.44
2023-03-18T08:23:41.434Z,98082.84
2023-03-18T08:28:33.142Z,98095.69
2023-03-18T08:33:27.175Z,98094.13
2023-03-18T08:38:19.407Z,98094.47
2023-03-18T08:43:11.325Z,98100.06
2023-03-18T08:48:03.028Z,98108.56
2023-03-18T08:52:59.992Z,98104.78
2023-03-18T08:57:51.731Z,98108.16
2023-03-18T09:02:43.359Z,98108.31
2023-03-18T09:07:35.167Z,98116.59
2023-03-18T09:12:26.793Z,98114.25
2023-03-18T09:17:18.955Z,98117.34
2023-03-18T09:22:11.433Z,98120.09
2023-03-18T09:27:03.202Z,98123.34
2023-03-18T09:31:55.761Z,98130.16
2023-03-18T09:36:51.312Z,98124.44
2023-03-18T09:42:01.702Z,98131.22
2023-03-18T09:47:06.016Z,98129.31
2023-03-18T09:52:07.318Z,98128.78
2023-03-18T09:57:00.005Z,98132.03
2023-03-18T10:01:56.396Z,98124.16
2023-03-18T10:06:50.844Z,98132.19
2023-03-18T10:11:42.860Z,98128.47
2023-03-18T10:16:48.918Z,98138.66
2023-03-18T10:21:48.080Z,98140.75
2023-03-18T10:26:47.103Z,98134.13
2023-03-18T10:31:47.859Z,98139.09
2023-03-18T10:36:45.534Z,98135.94
2023-03-18T10:41:38.644Z,98145.38
2023-03-18T10:46:31.847Z,98152.25
2023-03-18T10:51:34.639Z,98159.84
2023-03-18T10:56:26.353Z,98151.28
2023-03-18T11:01:22.965Z,98158.88
2023-03-18T11:06:47.386Z,98148.75
2023-03-18T11:12:05.433Z,98150.38
2023-03-18T11:17:01.552Z,98144.44
2023-03-18T11:22:25.959Z,98146.22
2023-03-18T11:27:17.576Z,98154.50
2023-03-18T11:32:23.676Z,98148.16
2023-03-18T11:37:15.318Z,98153.31
2023-03-18T11:42:22.224Z,98149.59
2023-03-18T11:47:22.331Z,98148.66
2023-03-18T11:52:32.738Z,98151.19
2023-03-18T11:57:52.336Z,98157.41
2023-03-18T12:03:15.536Z,98153.84
2023-03-18T12:08:10.169Z,98148.66
2023-03-18T12:13:26.278Z,98145.28
2023-03-18T12:18:26.031Z,98142.84
2023-03-18T12:23:36.029Z,98142.00
2023-03-18T12:28:42.932Z,98137.28
2023-03-18T12:33:49.627Z,98139.91
2023-03-18T12:39:05.864Z,98134.66
2023-03-18T12:44:06.904Z,98129.34
2023-03-18T12:49:39.097Z,98130.38
2023-03-18T12:54:36.784Z,98142.59
2023-03-18T12:59:42.481Z,98148.56
2023-03-18T13:04:37.591Z,98134.78
2023-03-18T13:09:45.954Z,98137.97
2023-03-18T13:14:48.953Z,98147.69
2023-03-18T13:19:42.117Z,98144.66
2023-03-18T13:24:54.148Z,98136.31
2023-03-18T13:29:52.233Z,98132.38
2023-03-18T13:35:02.152Z,98138.44
2023-03-18T13:40:12.952Z,98140.44
2023-03-18T13:45:16.873Z,98141.28
2023-03-18T13:50:20.765Z,98152.00
2023-03-18T13:55:44.588Z,98153.22
2023-03-18T14:01:01.384Z,98138.06
2023-03-18T14:06:15.993Z,98135.13
2023-03-18T14:11:17.054Z,98135.25
2023-03-18T14:16:14.995Z,98127.91
2023-03-18T14:21:23.828Z,98127.41
2023-03-18T14:26:21.870Z,98126.03
2023-03-18T14:31:40.157Z,98138.53
2023-03-18T14:36:53.404Z,98126.97
2023-03-18T14:41:48.762Z,98130.72
2023-03-18T14:46:43.433Z,98136.91
2023-03-18T14:51:35.566Z,98161.66
2023-03-18T14:56:36.117Z,98161.06
2023-03-18T15:01:40.146Z,98156.44
2023-03-18T15:06:32.595Z,98149.53
2023-03-18T15:11:24.781Z,98146.03
2023-03-18T15:16:19.943Z,98137.91
2023-03-18T15:21:17.804Z,98133.84
2023-03-18T15:26:21.691Z,98137.31
2023-03-18T15:31:33.062Z,98130.66
2023-03-18T15:36:25.268Z,98147.53
2023-03-18T15:41:21.625Z,98153.53
2023-03-18T15:46:19.034Z,98149.22
2023-03-18T15:51:48.181Z,98150.31
2023-03-18T15:56:47.724Z,98158.22
2023-03-18T16:01:40.335Z,98156.81
2023-03-18T16:06:34.552Z,98166.66
2023-03-18T16:11:26.350Z,98163.69
2023-03-18T16:16:25.212Z,98171.63
2023-03-18T16:21:17.192Z,98180.69
2023-03-18T16:26:16.448Z,98177.16
2023-03-18T16:31:08.400Z,98180.94
2023-03-18T16:36:01.756Z,98186.69
2023-03-18T16:40:54.906Z,98196.81
2023-03-18T16:45:47.593Z,98202.81
2023-03-18T16:50:41.439Z,98212.38
2023-03-18T16:55:34.560Z,98217.84
2023-03-18T17:00:31.846Z,98223.53
2023-03-18T17:05:24.190Z,98220.53
2023-03-18T17:10:19.020Z,98229.50
2023-03-18T17:15:12.687Z,98232.75
2023-03-18T17:20:15.539Z,98234.94
2023-03-18T17:25:07.509Z,98248.53
2023-03-18T17:29:59.288Z,98250.97
2023-03-18T17:34:52.403Z,98269.44
2023-03-18T17:39:44.841Z,98272.97
2023-03-18T17:44:36.811Z,98273.78
2023-03-18T17:49:28.585Z,98293.59
2023-03-18T17:54:25.431Z,98298.19
2023-03-18T17:59:19.554Z,98305.25
2023-03-18T18:04:16.736Z,98313.09
2023-03-18T18:09:13.317Z,98316.63
2023-03-18T18:14:18.511Z,98305.69
2023-03-18T18:19:14.541Z,98311.38
2023-03-18T18:24:24.059Z,98318.94
2023-03-18T18:29:20.568Z,98332.50
2023-03-18T18:34:12.433Z,98331.97
2023-03-18T18:39:05.324Z,98339.81
2023-03-18T18:43:57.177Z,98343.88
2023-03-18T18:48:49.313Z,98341.94
2023-03-18T18:53:43.354Z,98340.28
2023-03-18T18:58:36.613Z,98342.47
2023-03-18T19:03:31.941Z,98344.34
2023-03-18T19:08:25.071Z,98401.66
2023-03-18T19:13:17.021Z,98409.16
2023-03-18T19:18:21.377Z,98412.94
2023-03-18T19:23:23.453Z,98427.63
2023-03-18T19:28:20.970Z,98431.75
2023-03-18T19:33:22.197Z,98436.03
2023-03-18T19:38:17.871Z,98447.25
2023-03-18T19:43:21.573Z,98452.81
2023-03-18T19:48:19.885Z,98457.34
2023-03-18T19:53:16.093Z,98478.34
2023-03-18T19:58:24.181Z,98491.91
2023-03-18T20:03:18.131Z,98491.47
2023-03-18T20:08:10.131Z,98489.72
2023-03-18T20:13:01.930Z,98518.16
2023-03-18T20:17:54.504Z,98528.28
2023-03-18T20:22:51.924Z,98537.56
2023-03-18T20:27:43.613Z,98546.19
2023-03-18T20:32:35.266Z,98564.19
2023-03-18T20:37:34.398Z,98562.75
2023-03-18T20:42:26.248Z,98563.22
2023-03-18T20:47:17.956Z,98565.34
2023-03-18T20:52:23.366Z,98563.09
2023-03-18T20:57:15.293Z,98562.25
2023-03-18T21:02:29.995Z,98576.81
2023-03-18T21:07:22.152Z,98587.03
2023-03-18T21:12:18.630Z,98579.38
2023-03-18T21:17:22.427Z,98591.84
2023-03-18T21:22:21.516Z,98607.91
2023-03-18T21:27:31.502Z,98607.06
2023-03-18T21:32:27.371Z,98616.59
2023-03-18T21:37:22.283Z,98635.75
2023-03-18T21:42:23.126Z,98623.06
2023-03-18T21:47:17.884Z,98614.50
2023-03-18T21:52:29.288Z,98612.00
2023-03-18T21:57:22.524Z,98607.41
2023-03-18T22:02:31.592Z,98606.81
2023-03-18T22:07:23.887Z,98607.50
2023-03-18T22:12:24.539Z,98619.72
2023-03-18T22:17:37.217Z,98633.13
2023-03-18T22:22:39.261Z,98653.44
2023-03-18T22:27:31.603Z,98639.34
2023-03-18T22:32:26.225Z,98626.31
2023-03-18T22:37:23.076Z,98646.34
2023-03-18T22:42:18.167Z,98667.19
2023-03-18T22:47:15.216Z,98663.53
2023-03-18T22:52:11.895Z,98668.31
2023-03-18T22:57:03.692Z,98672.78
2023-03-18T23:01:55.299Z,98659.34
2023-03-18T23:06:46.984Z,98672.47
2023-03-18T23:11:38.891Z,98676.66
2023-03-18T23:16:30.535Z,98690.44
2023-03-18T23:21:24.756Z,98693.81
2023-03-18T23:26:16.789Z,98693.59
2023-03-18T23:31:09.443Z,98701.31
2023-03-18T23:36:01.492Z,98691.78
2023-03-18T23:40:53.156Z,98690.19
2023-03-18T23:45:45.025Z,98707.25
2023-03-18T23:50:36.714Z,98698.56
2023-03-18T23:55:34.939Z,98698.63
